Time;durP1;ratioP1;P1;durP2;ratioP2;P2;SDS_P1;SDS_P2;PMS_P1;PMS_P2;Temp;Humidity;BMP_temperature;BMP_pressure;BME280_temperature;BME280_humidity;BME280_pressure;Samples;Min_cycle;Max_cycle;Signal;HPM_P1;HPM_P2
2023/08/11 00:02:22;;;;;;;0.40;0.20;;;14.70;99.90;;;;;;5102396;27;20055;-70
2023/08/11 00:04:50;;;;;;;0.43;0.30;;;14.70;99.90;;;;;;5104360;27;20047;-70
2023/08/11 00:07:16;;;;;;;0.10;0.10;;;14.70;99.90;;;;;;5097130;27;20042;-70
2023/08/11 00:09:41;;;;;;;0.25;0.10;;;14.60;99.90;;;;;;5102699;27;20031;-70
2023/08/11 00:12:07;;;;;;;0.47;0.22;;;14.60;99.90;;;;;;5104790;27;20038;-70
2023/08/11 00:14:33;;;;;;;0.70;0.40;;;14.60;99.90;;;;;;5100353;27;20043;-70
2023/08/11 00:16:58;;;;;;;0.40;0.40;;;14.50;99.90;;;;;;5140789;27;20440;-70
2023/08/11 00:19:25;;;;;;;3.13;0.43;;;14.50;99.90;;;;;;5101961;27;20393;-70
2023/08/11 00:21:51;;;;;;;0.38;0.38;;;14.50;99.90;;;;;;5093715;27;20403;-70
2023/08/11 00:24:16;;;;;;;0.60;0.55;;;14.50;99.90;;;;;;5141149;27;20035;-71
2023/08/11 00:26:42;;;;;;;0.70;0.38;;;14.50;99.90;;;;;;5103696;27;20088;-71
2023/08/11 00:29:07;;;;;;;1.27;0.70;;;14.50;99.90;;;;;;5117320;27;20078;-71
2023/08/11 00:31:33;;;;;;;0.47;0.47;;;14.50;99.90;;;;;;5136270;27;20050;-71
2023/08/11 00:33:59;;;;;;;0.85;0.85;;;14.50;99.90;;;;;;5104794;27;20038;-71
2023/08/11 00:36:24;;;;;;;1.05;0.95;;;14.50;99.90;;;;;;5097280;27;20043;-71
2023/08/11 00:38:50;;;;;;;0.55;0.55;;;14.40;99.90;;;;;;5104758;27;20031;-71
2023/08/11 00:41:16;;;;;;;2.33;1.45;;;14.50;99.90;;;;;;5104651;27;20151;-70
2023/08/11 00:43:42;;;;;;;0.90;0.32;;;14.40;99.90;;;;;;5102513;27;20035;-70
2023/08/11 00:46:13;;;;;;;1.38;1.25;;;14.40;99.90;;;;;;5099828;27;20074;-71
2023/08/11 00:48:40;;;;;;;2.60;1.67;;;14.40;99.90;;;;;;5095152;27;20051;-71
2023/08/11 00:51:06;;;;;;;2.08;0.82;;;14.30;99.90;;;;;;5105799;27;20070;-71
2023/08/11 00:53:36;;;;;;;0.10;0.10;;;14.40;99.90;;;;;;5103482;27;20054;-70
2023/08/11 00:56:03;;;;;;;0.38;0.32;;;14.30;99.90;;;;;;5099787;27;20050;-71
2023/08/11 00:58:30;;;;;;;0.40;0.40;;;14.30;99.90;;;;;;5101148;27;20039;-71
2023/08/11 01:00:57;;;;;;;0.45;0.45;;;14.30;99.90;;;;;;5098609;27;20703;-70
2023/08/11 01:03:23;;;;;;;0.17;0.17;;;14.30;99.90;;;;;;5101652;27;20038;-70
2023/08/11 01:05:59;;;;;;;1.27;0.63;;;14.30;99.90;;;;;;5100586;27;20046;-71
2023/08/11 01:08:36;;;;;;;0.70;0.50;;;14.30;99.90;;;;;;5099638;27;20395;-71
2023/08/11 01:11:17;;;;;;;0.73;0.47;;;14.30;99.90;;;;;;5099250;28;20058;-71
2023/08/11 01:13:50;;;;;;;0.10;0.10;;;14.20;99.90;;;;;;5099040;27;20031;-71
2023/08/11 01:16:17;;;;;;;2.30;0.73;;;14.20;99.90;;;;;;5135946;27;20625;-71
2023/08/11 01:18:43;;;;;;;0.77;0.43;;;14.20;99.90;;;;;;5098699;27;20058;-71
2023/08/11 01:21:13;;;;;;;0.70;0.35;;;14.20;99.90;;;;;;5101783;27;20043;-71
2023/08/11 01:23:40;;;;;;;0.68;0.68;;;14.20;99.90;;;;;;5103498;27;20349;-71
2023/08/11 01:26:06;;;;;;;0.60;0.60;;;14.20;99.90;;;;;;5086770;27;20101;-70
2023/08/11 01:28:34;;;;;;;2.78;0.45;;;14.20;99.90;;;;;;5099158;27;20035;-71
2023/08/11 01:31:00;;;;;;;0.35;0.35;;;14.20;99.90;;;;;;5105768;27;20424;-71
2023/08/11 01:33:26;;;;;;;0.75;0.70;;;14.10;99.90;;;;;;5118011;27;20028;-71
2023/08/11 01:35:51;;;;;;;1.33;0.75;;;14.10;99.90;;;;;;5096414;28;20043;-70
2023/08/11 01:38:17;;;;;;;0.65;0.65;;;14.10;99.90;;;;;;5091537;27;20418;-70
2023/08/11 01:40:42;;;;;;;0.47;0.40;;;14.10;99.90;;;;;;5119145;27;20036;-71
2023/08/11 01:43:11;;;;;;;0.63;0.63;;;14.10;99.90;;;;;;5102540;27;20043;-71
2023/08/11 01:45:37;;;;;;;0.73;0.47;;;14.00;99.90;;;;;;5093831;27;20427;-71
2023/08/11 01:48:04;;;;;;;0.82;0.82;;;14.00;99.90;;;;;;5097611;27;20050;-72
2023/08/11 01:50:31;;;;;;;0.50;0.43;;;14.00;99.90;;;;;;5103422;27;20031;-72
2023/08/11 01:52:57;;;;;;;0.60;0.60;;;14.00;99.90;;;;;;5100106;27;20232;-71
2023/08/11 01:55:24;;;;;;;1.30;0.20;;;13.90;99.90;;;;;;5091505;27;20506;-71
2023/08/11 01:57:51;;;;;;;0.63;0.25;;;13.90;99.90;;;;;;5099367;27;20035;-71
2023/08/11 02:00:17;;;;;;;0.40;0.40;;;13.90;99.90;;;;;;5102746;27;20070;-71
2023/08/11 02:02:43;;;;;;;0.00;0.00;;;13.90;99.90;;;;;;5135866;27;20090;-71
2023/08/11 02:05:15;;;;;;;0.68;0.45;;;13.90;99.90;;;;;;5137176;27;20096;-71
2023/08/11 02:07:42;;;;;;;0.63;0.63;;;13.90;99.90;;;;;;5097330;27;20536;-71
2023/08/11 02:10:09;;;;;;;0.52;0.15;;;13.90;99.90;;;;;;5133410;27;20129;-72
2023/08/11 02:12:36;;;;;;;0.40;0.40;;;13.90;99.90;;;;;;5101610;27;20495;-71
2023/08/11 02:15:05;;;;;;;1.75;0.70;;;13.90;99.90;;;;;;5104907;27;20474;-72
2023/08/11 02:17:31;;;;;;;0.40;0.38;;;13.90;99.90;;;;;;5098786;27;20043;-71
2023/08/11 02:19:58;;;;;;;0.45;0.30;;;13.90;99.90;;;;;;5100468;27;20046;-71
2023/08/11 02:22:24;;;;;;;1.35;0.70;;;13.90;99.90;;;;;;5102695;28;20050;-71
2023/08/11 02:24:50;;;;;;;0.30;0.20;;;13.90;99.90;;;;;;5100169;28;20039;-71
2023/08/11 02:27:16;;;;;;;0.75;0.20;;;14.00;99.90;;;;;;5103967;28;20050;-72
2023/08/11 02:29:41;;;;;;;0.57;0.50;;;14.00;99.90;;;;;;5104608;28;20038;-71
2023/08/11 02:32:07;;;;;;;0.55;0.55;;;14.00;99.90;;;;;;5087504;28;20035;-72
2023/08/11 02:34:34;;;;;;;0.75;0.70;;;14.00;99.90;;;;;;5099501;28;20043;-71
2023/08/11 02:37:00;;;;;;;0.65;0.35;;;14.00;99.90;;;;;;5095989;28;20043;-72
2023/08/11 02:39:26;;;;;;;0.15;0.15;;;14.00;99.90;;;;;;5116803;28;20498;-71
2023/08/11 02:41:52;;;;;;;0.32;0.10;;;14.00;99.90;;;;;;5098934;28;20042;-72
2023/08/11 02:44:18;;;;;;;0.55;0.55;;;14.00;99.90;;;;;;5100931;28;20039;-72
2023/08/11 02:46:43;;;;;;;0.55;0.40;;;14.00;99.90;;;;;;5112448;28;20031;-71
2023/08/11 02:49:09;;;;;;;0.85;0.63;;;13.90;99.90;;;;;;5115487;28;20035;-72
2023/08/11 02:51:35;;;;;;;0.88;0.45;;;13.90;99.90;;;;;;5100871;28;20039;-71
2023/08/11 02:54:01;;;;;;;0.65;0.57;;;13.90;99.90;;;;;;5109331;28;20474;-71
2023/08/11 02:56:27;;;;;;;1.17;0.88;;;13.80;99.90;;;;;;5091459;28;20039;-72
2023/08/11 02:58:56;;;;;;;0.75;0.38;;;13.70;99.90;;;;;;5110706;27;20057;-71
2023/08/11 03:01:25;;;;;;;0.28;0.22;;;13.70;99.90;;;;;;5113227;27;20408;-71
2023/08/11 03:03:50;;;;;;;0.10;0.10;;;13.70;99.90;;;;;;5111197;27;20398;-71
2023/08/11 03:06:16;;;;;;;0.93;0.73;;;13.70;99.90;;;;;;5117119;27;20051;-72
2023/08/11 03:08:42;;;;;;;0.40;0.38;;;13.70;99.90;;;;;;5108013;27;20053;-72
2023/08/11 03:11:08;;;;;;;2.10;1.63;;;13.70;99.90;;;;;;5102363;27;20069;-71
2023/08/11 03:13:34;;;;;;;0.20;0.20;;;13.70;99.90;;;;;;5106365;27;20092;-72
2023/08/11 03:16:00;;;;;;;0.38;0.38;;;13.70;99.90;;;;;;5105176;27;20384;-71
2023/08/11 03:18:26;;;;;;;0.52;0.43;;;13.70;99.90;;;;;;5100457;27;20054;-71
2023/08/11 03:20:54;;;;;;;0.32;0.28;;;13.70;99.90;;;;;;5102574;27;20031;-71
2023/08/11 03:23:20;;;;;;;1.27;0.32;;;13.70;99.90;;;;;;5105476;28;20040;-72
2023/08/11 03:25:46;;;;;;;0.40;0.30;;;13.70;99.90;;;;;;5121389;27;20115;-71
2023/08/11 03:28:12;;;;;;;0.30;0.30;;;13.80;99.90;;;;;;5107000;27;20039;-71
2023/08/11 03:30:37;;;;;;;0.55;0.52;;;13.80;99.90;;;;;;5101047;27;20770;-72
2023/08/11 03:33:03;;;;;;;0.80;0.52;;;13.80;99.90;;;;;;5107041;27;20070;-71
2023/08/11 03:35:32;;;;;;;0.20;0.20;;;13.80;99.90;;;;;;5101021;27;20032;-71
2023/08/11 03:37:58;;;;;;;1.08;0.10;;;13.90;99.90;;;;;;5106303;27;20050;-71
2023/08/11 03:40:23;;;;;;;0.15;0.15;;;13.90;99.90;;;;;;5105811;27;20049;-71
2023/08/11 03:42:49;;;;;;;1.10;0.30;;;13.90;99.90;;;;;;5101898;27;20047;-71
2023/08/11 03:45:15;;;;;;;0.40;0.40;;;13.90;99.90;;;;;;5100904;27;20038;-71
2023/08/11 03:47:41;;;;;;;0.10;0.10;;;13.90;99.90;;;;;;5104060;27;20043;-72
2023/08/11 03:50:08;;;;;;;0.55;0.20;;;13.90;99.90;;;;;;5134580;27;20039;-72
2023/08/11 03:52:35;;;;;;;0.30;0.30;;;13.90;99.90;;;;;;5095921;27;20055;-71
2023/08/11 03:55:01;;;;;;;1.60;0.43;;;13.90;99.90;;;;;;5097135;27;20260;-71
2023/08/11 03:57:27;;;;;;;0.38;0.35;;;13.90;99.90;;;;;;5095767;27;20184;-70
2023/08/11 03:59:52;;;;;;;0.20;0.20;;;13.90;99.90;;;;;;5091531;27;20421;-71
2023/08/11 04:02:18;;;;;;;1.05;0.70;;;13.90;99.90;;;;;;5100496;27;20385;-71
2023/08/11 04:04:45;;;;;;;0.50;0.50;;;13.90;99.90;;;;;;5094581;28;20076;-71
2023/08/11 04:07:11;;;;;;;0.45;0.32;;;13.90;99.90;;;;;;5095090;27;20040;-71
2023/08/11 04:09:39;;;;;;;0.50;0.30;;;13.90;99.90;;;;;;5097067;28;20051;-72
2023/08/11 04:12:06;;;;;;;0.93;0.80;;;13.90;99.90;;;;;;5111533;27;20491;-72
2023/08/11 04:14:32;;;;;;;0.35;0.35;;;14.00;99.90;;;;;;5099594;27;20040;-71
2023/08/11 04:16:58;;;;;;;0.10;0.10;;;14.00;99.90;;;;;;5094647;27;20402;-71
2023/08/11 04:19:23;;;;;;;0.45;0.40;;;13.90;99.90;;;;;;5128633;27;20043;-71
2023/08/11 04:21:49;;;;;;;0.10;0.10;;;14.00;99.90;;;;;;5095192;27;20050;-71
2023/08/11 04:24:17;;;;;;;0.45;0.40;;;14.00;99.90;;;;;;5098104;27;20062;-71
2023/08/11 04:26:43;;;;;;;0.40;0.40;;;14.00;99.90;;;;;;5100018;27;20466;-72
2023/08/11 04:29:08;;;;;;;0.35;0.35;;;14.00;99.90;;;;;;5095260;27;20193;-71
2023/08/11 04:31:34;;;;;;;0.57;0.57;;;14.00;99.90;;;;;;5098974;27;20032;-71
2023/08/11 04:34:00;;;;;;;0.50;0.20;;;14.00;99.90;;;;;;5127929;27;20059;-72
2023/08/11 04:36:25;;;;;;;0.28;0.25;;;14.00;99.90;;;;;;5100860;27;20039;-72
2023/08/11 04:38:52;;;;;;;0.22;0.20;;;14.00;99.90;;;;;;5101782;27;20518;-72
2023/08/11 04:41:17;;;;;;;1.27;0.30;;;14.10;99.90;;;;;;5100975;27;20054;-72
2023/08/11 04:43:43;;;;;;;0.10;0.10;;;14.00;99.90;;;;;;5094501;27;20048;-72
2023/08/11 04:46:08;;;;;;;1.50;0.43;;;14.10;99.90;;;;;;5100366;27;20056;-72
2023/08/11 04:48:34;;;;;;;1.45;1.35;;;14.10;99.90;;;;;;5130729;27;20467;-72
2023/08/11 04:51:00;;;;;;;0.30;0.30;;;14.10;99.90;;;;;;5099591;27;20040;-72
2023/08/11 04:53:25;;;;;;;0.20;0.20;;;14.10;99.90;;;;;;5098587;27;20386;-71
2023/08/11 04:55:51;;;;;;;0.55;0.32;;;14.20;99.90;;;;;;5096071;27;20040;-71
2023/08/11 04:58:18;;;;;;;0.55;0.55;;;14.20;99.90;;;;;;5098008;27;20050;-71
2023/08/11 05:00:43;;;;;;;0.25;0.25;;;14.30;99.90;;;;;;5111916;27;20035;-72
2023/08/11 05:03:09;;;;;;;0.00;0.00;;;14.30;99.90;;;;;;5099773;27;20023;-72
2023/08/11 05:05:35;;;;;;;0.35;0.35;;;14.30;99.90;;;;;;5135767;27;20038;-71
2023/08/11 05:08:01;;;;;;;0.60;0.60;;;14.40;99.90;;;;;;5092785;27;20062;-72
2023/08/11 05:10:26;;;;;;;0.00;0.00;;;14.40;99.90;;;;;;5095546;27;20126;-71
2023/08/11 05:12:52;;;;;;;0.08;0.08;;;14.50;99.90;;;;;;5097715;27;20038;-71
2023/08/11 05:15:17;;;;;;;0.25;0.25;;;14.50;99.90;;;;;;5099763;27;20109;-71
2023/08/11 05:17:43;;;;;;;0.30;0.30;;;14.60;99.90;;;;;;5095760;27;20043;-71
2023/08/11 05:20:10;;;;;;;0.55;0.30;;;14.60;99.90;;;;;;5098857;27;20045;-71
2023/08/11 05:22:36;;;;;;;0.25;0.25;;;14.70;99.90;;;;;;5097084;27;20464;-71
2023/08/11 05:25:06;;;;;;;0.22;0.17;;;14.80;99.90;;;;;;5093684;27;20472;-71
2023/08/11 05:27:32;;;;;;;0.20;0.20;;;14.80;99.90;;;;;;5102663;28;20039;-71
2023/08/11 05:29:57;;;;;;;0.20;0.20;;;14.90;99.90;;;;;;5097042;27;20539;-71
2023/08/11 05:32:23;;;;;;;0.38;0.25;;;15.00;99.90;;;;;;5095418;27;20039;-71
2023/08/11 05:34:50;;;;;;;0.10;0.10;;;15.00;99.90;;;;;;5101498;27;20080;-71
2023/08/11 05:37:16;;;;;;;0.28;0.28;;;15.10;99.90;;;;;;5138063;27;20039;-71
2023/08/11 05:39:44;;;;;;;0.63;0.10;;;15.20;99.90;;;;;;5101435;27;20039;-71
2023/08/11 05:42:10;;;;;;;0.10;0.10;;;15.20;99.90;;;;;;5094307;27;20504;-71
2023/08/11 05:44:36;;;;;;;0.55;0.55;;;15.30;99.90;;;;;;5118997;27;20043;-71
2023/08/11 05:47:02;;;;;;;0.10;0.10;;;15.40;99.90;;;;;;5103248;27;20043;-71
2023/08/11 05:49:28;;;;;;;0.10;0.10;;;15.50;99.90;;;;;;5103801;27;20050;-71
2023/08/11 05:51:53;;;;;;;0.10;0.10;;;15.60;99.90;;;;;;5094247;27;20045;-71
2023/08/11 05:54:19;;;;;;;0.40;0.10;;;15.70;99.90;;;;;;5097353;28;20071;-71
2023/08/11 05:56:45;;;;;;;0.38;0.38;;;15.70;99.90;;;;;;5109630;27;20464;-70
2023/08/11 05:59:11;;;;;;;0.20;0.20;;;15.90;99.90;;;;;;5094262;27;20039;-70
2023/08/11 06:01:37;;;;;;;0.10;0.10;;;15.90;99.90;;;;;;5112239;27;20478;-70
2023/08/11 06:04:03;;;;;;;0.10;0.10;;;16.00;99.90;;;;;;5098787;27;20429;-70
2023/08/11 06:06:28;;;;;;;0.65;0.40;;;16.10;99.90;;;;;;5091728;28;20047;-71
2023/08/11 06:08:54;;;;;;;0.15;0.15;;;16.20;99.90;;;;;;5078974;27;20432;-70
2023/08/11 06:11:21;;;;;;;0.10;0.10;;;16.30;99.90;;;;;;5095141;27;20051;-70
2023/08/11 06:13:46;;;;;;;0.10;0.10;;;16.40;99.90;;;;;;5094960;28;20035;-70
2023/08/11 06:16:12;;;;;;;0.00;0.00;;;16.50;99.90;;;;;;5097523;27;20046;-70
2023/08/11 06:18:38;;;;;;;0.10;0.10;;;16.60;99.90;;;;;;5095577;27;20035;-70
2023/08/11 06:21:05;;;;;;;0.05;0.05;;;16.70;99.90;;;;;;5099311;27;20039;-71
2023/08/11 06:23:31;;;;;;;0.10;0.10;;;16.80;99.90;;;;;;5103342;27;20043;-70
2023/08/11 06:25:57;;;;;;;0.10;0.10;;;16.90;99.90;;;;;;5137584;27;20075;-70
2023/08/11 06:28:22;;;;;;;0.05;0.05;;;17.00;99.90;;;;;;5102035;28;20123;-70
2023/08/11 06:30:49;;;;;;;0.10;0.10;;;17.20;99.90;;;;;;5102616;28;20505;-70
2023/08/11 06:33:14;;;;;;;0.10;0.10;;;17.30;99.90;;;;;;5104008;28;20036;-70
2023/08/11 06:35:42;;;;;;;0.52;0.20;;;17.40;99.90;;;;;;5099786;28;20031;-70
2023/08/11 06:38:08;;;;;;;0.32;0.20;;;17.60;99.90;;;;;;5103526;28;20145;-70
2023/08/11 06:40:34;;;;;;;0.00;0.00;;;17.70;99.90;;;;;;5104330;28;20042;-70
2023/08/11 06:43:00;;;;;;;0.10;0.10;;;17.80;99.90;;;;;;5094654;28;20123;-70
2023/08/11 06:45:26;;;;;;;0.00;0.00;;;17.90;99.90;;;;;;5097425;28;20138;-71
2023/08/11 06:47:51;;;;;;;0.35;0.10;;;18.00;99.90;;;;;;5099836;28;20043;-70
2023/08/11 06:50:17;;;;;;;0.17;0.17;;;18.10;99.90;;;;;;5111797;28;20042;-70
2023/08/11 06:52:43;;;;;;;0.40;0.22;;;18.20;99.90;;;;;;5100615;28;20469;-69
2023/08/11 06:55:08;;;;;;;0.30;0.30;;;18.20;99.90;;;;;;5111245;28;20556;-70
2023/08/11 06:57:35;;;;;;;0.10;0.10;;;18.40;99.90;;;;;;5102473;28;20042;-70
2023/08/11 07:00:01;;;;;;;1.02;0.45;;;18.40;99.90;;;;;;5110971;28;20469;-70
2023/08/11 07:02:26;;;;;;;0.15;0.15;;;18.50;99.90;;;;;;5108146;28;20089;-70
2023/08/11 07:04:52;;;;;;;0.17;0.17;;;18.60;99.90;;;;;;5102698;28;20138;-70
2023/08/11 07:07:17;;;;;;;0.47;0.15;;;18.70;99.90;;;;;;5110293;28;20126;-70
2023/08/11 07:09:43;;;;;;;0.10;0.10;;;18.70;99.90;;;;;;5105020;28;20035;-70
2023/08/11 07:12:09;;;;;;;0.00;0.00;;;18.80;99.90;;;;;;5091836;28;20078;-69
2023/08/11 07:14:34;;;;;;;0.13;0.13;;;18.90;99.90;;;;;;5090757;28;20097;-70
2023/08/11 07:17:00;;;;;;;0.10;0.10;;;19.10;99.90;;;;;;5089828;28;20040;-70
2023/08/11 07:19:25;;;;;;;0.22;0.10;;;19.10;99.90;;;;;;5091049;28;20097;-70
2023/08/11 07:21:51;;;;;;;0.45;0.43;;;19.20;99.90;;;;;;5094108;28;20074;-70
2023/08/11 07:24:16;;;;;;;0.17;0.17;;;19.30;99.90;;;;;;5109403;28;20370;-69
2023/08/11 07:26:42;;;;;;;0.10;0.10;;;19.40;99.90;;;;;;5102514;28;20071;-68
2023/08/11 07:29:08;;;;;;;0.30;0.13;;;19.50;99.90;;;;;;5091679;28;20467;-70
2023/08/11 07:31:33;;;;;;;0.32;0.32;;;19.60;99.90;;;;;;5108870;28;20042;-70
2023/08/11 07:33:59;;;;;;;0.15;0.15;;;19.60;99.90;;;;;;5110055;28;20038;-69
2023/08/11 07:36:25;;;;;;;0.10;0.10;;;19.60;99.90;;;;;;5111018;28;20163;-70
2023/08/11 07:38:50;;;;;;;0.30;0.30;;;19.70;99.90;;;;;;5119763;28;20046;-69
2023/08/11 07:41:16;;;;;;;0.75;0.75;;;19.80;99.90;;;;;;5111804;28;20039;-70
2023/08/11 07:43:41;;;;;;;0.25;0.25;;;19.90;99.90;;;;;;5108998;28;20379;-69
2023/08/11 07:46:07;;;;;;;0.20;0.20;;;20.00;99.90;;;;;;5105896;27;20041;-70
2023/08/11 07:48:33;;;;;;;0.30;0.30;;;20.00;99.90;;;;;;5107751;27;20047;-70
2023/08/11 07:50:58;;;;;;;0.55;0.55;;;20.20;99.90;;;;;;5108396;27;20090;-69
2023/08/11 07:53:24;;;;;;;2.00;0.35;;;20.30;99.90;;;;;;5104953;27;20031;-70
2023/08/11 07:55:50;;;;;;;0.35;0.20;;;20.40;99.90;;;;;;5107386;27;20043;-69
2023/08/11 07:58:16;;;;;;;0.30;0.25;;;20.40;99.90;;;;;;5103486;27;20042;-69
2023/08/11 08:00:41;;;;;;;0.32;0.30;;;20.50;99.90;;;;;;5107467;27;20051;-70
2023/08/11 08:03:07;;;;;;;0.28;0.28;;;20.60;99.90;;;;;;5092012;27;20043;-70
2023/08/11 08:05:32;;;;;;;0.15;0.10;;;20.70;99.90;;;;;;5098915;27;20116;-70
2023/08/11 08:07:58;;;;;;;0.45;0.25;;;20.80;99.90;;;;;;5102738;27;20035;-69
2023/08/11 08:10:25;;;;;;;0.35;0.35;;;20.90;99.90;;;;;;5102882;27;20047;-70
2023/08/11 08:12:51;;;;;;;0.25;0.25;;;21.00;99.90;;;;;;5100079;28;20061;-69
2023/08/11 08:15:17;;;;;;;0.28;0.20;;;21.10;99.90;;;;;;5107974;27;20047;-69
2023/08/11 08:17:43;;;;;;;0.63;0.30;;;21.10;99.90;;;;;;5109707;27;20550;-69
2023/08/11 08:20:10;;;;;;;0.00;0.00;;;21.20;99.90;;;;;;5106917;27;20572;-69
2023/08/11 08:22:39;;;;;;;0.28;0.28;;;21.30;99.90;;;;;;5111860;27;20042;-70
2023/08/11 08:25:08;;;;;;;0.20;0.20;;;21.30;99.90;;;;;;5124003;27;20078;-70
2023/08/11 08:27:38;;;;;;;0.63;0.50;;;21.40;99.90;;;;;;5107333;27;20095;-68
2023/08/11 08:30:05;;;;;;;4.20;0.32;;;21.50;99.90;;;;;;5106665;27;20038;-69
2023/08/11 08:32:32;;;;;;;0.10;0.10;;;21.50;99.90;;;;;;5111382;27;20031;-68
2023/08/11 08:34:58;;;;;;;0.52;0.52;;;21.60;99.90;;;;;;5117714;27;20074;-68
2023/08/11 08:37:24;;;;;;;0.10;0.10;;;21.70;99.90;;;;;;5100038;27;20457;-69
2023/08/11 08:39:52;;;;;;;0.28;0.28;;;21.80;99.90;;;;;;5104501;27;20043;-68
2023/08/11 08:42:19;;;;;;;0.32;0.32;;;21.80;99.90;;;;;;5108816;27;20040;-68
2023/08/11 08:44:46;;;;;;;0.52;0.40;;;21.90;99.90;;;;;;5116980;27;20043;-68
2023/08/11 08:47:12;;;;;;;0.10;0.10;;;22.00;99.90;;;;;;5105770;27;20039;-68
2023/08/11 08:49:40;;;;;;;0.20;0.20;;;22.10;99.90;;;;;;5112066;27;20050;-69
2023/08/11 08:52:06;;;;;;;0.80;0.32;;;22.20;99.90;;;;;;5102374;27;20042;-68
2023/08/11 08:54:33;;;;;;;1.50;0.20;;;22.20;99.90;;;;;;5101607;27;20046;-68
2023/08/11 08:57:00;;;;;;;0.40;0.40;;;22.30;99.90;;;;;;5100936;27;20039;-68
2023/08/11 08:59:26;;;;;;;0.10;0.10;;;22.40;99.90;;;;;;5117315;27;20225;-68
2023/08/11 09:01:53;;;;;;;0.20;0.15;;;22.40;99.90;;;;;;5099710;28;20047;-69
2023/08/11 09:04:20;;;;;;;0.25;0.25;;;22.50;99.90;;;;;;5101224;27;20401;-68
2023/08/11 09:06:46;;;;;;;0.10;0.10;;;22.60;99.90;;;;;;5100477;27;20050;-69
2023/08/11 09:09:12;;;;;;;0.08;0.08;;;22.60;99.90;;;;;;5098829;27;20047;-68
2023/08/11 09:11:39;;;;;;;0.20;0.20;;;22.70;99.90;;;;;;5117446;27;20074;-69
2023/08/11 09:14:06;;;;;;;0.52;0.52;;;22.80;99.90;;;;;;5098495;27;20042;-69
2023/08/11 09:16:36;;;;;;;0.20;0.20;;;22.90;99.90;;;;;;5106047;27;20054;-68
2023/08/11 09:19:04;;;;;;;0.38;0.10;;;23.00;99.90;;;;;;5103239;27;20039;-68
2023/08/11 09:21:30;;;;;;;0.43;0.43;;;23.10;99.90;;;;;;5138252;27;20050;-68
2023/08/11 09:23:56;;;;;;;0.10;0.10;;;23.20;99.90;;;;;;5095859;27;20072;-69
2023/08/11 09:26:24;;;;;;;0.00;0.00;;;23.30;99.90;;;;;;5104558;27;20055;-68
2023/08/11 09:28:50;;;;;;;0.10;0.10;;;23.30;99.90;;;;;;5124542;27;20039;-68
2023/08/11 09:31:19;;;;;;;0.20;0.20;;;23.50;99.90;;;;;;5095534;27;20043;-68
2023/08/11 09:33:45;;;;;;;0.20;0.15;;;23.50;99.90;;;;;;5098771;27;20030;-68
2023/08/11 09:36:11;;;;;;;1.08;0.38;;;23.60;99.90;;;;;;5081189;27;20475;-68
2023/08/11 09:38:36;;;;;;;0.57;0.50;;;23.70;99.90;;;;;;5129799;27;20458;-68
2023/08/11 09:41:05;;;;;;;0.85;0.73;;;23.70;99.90;;;;;;5092240;27;20046;-68
2023/08/11 09:43:31;;;;;;;0.15;0.15;;;23.80;99.90;;;;;;5103804;28;20046;-68
2023/08/11 09:45:59;;;;;;;0.10;0.10;;;23.90;99.90;;;;;;5100432;27;20031;-68
2023/08/11 09:48:26;;;;;;;0.32;0.30;;;24.00;99.90;;;;;;5102332;27;21232;-69
2023/08/11 09:50:52;;;;;;;0.10;0.10;;;24.00;99.90;;;;;;5105381;27;20437;-68
2023/08/11 09:53:22;;;;;;;0.10;0.10;;;24.10;99.90;;;;;;5108370;27;20417;-69
2023/08/11 09:55:49;;;;;;;0.52;0.52;;;24.20;99.90;;;;;;5105306;27;20189;-68
2023/08/11 09:58:17;;;;;;;0.17;0.17;;;24.20;99.90;;;;;;5102385;27;20402;-69
2023/08/11 10:00:45;;;;;;;0.00;0.00;;;24.20;99.90;;;;;;5124622;27;20042;-69
2023/08/11 10:03:15;;;;;;;0.90;0.43;;;24.30;99.90;;;;;;5102635;27;20043;-69
2023/08/11 10:05:44;;;;;;;0.25;0.25;;;24.40;99.90;;;;;;5106376;27;20043;-68
2023/08/11 10:08:19;;;;;;;0.30;0.30;;;24.50;99.90;;;;;;5101207;27;20526;-68
2023/08/11 10:10:45;;;;;;;0.10;0.10;;;24.60;99.90;;;;;;5105577;27;20454;-68
2023/08/11 10:13:15;;;;;;;0.77;0.57;;;24.60;99.90;;;;;;5094378;28;20489;-68
2023/08/11 10:15:41;;;;;;;0.20;0.20;;;24.70;99.90;;;;;;5105394;28;20107;-69
2023/08/11 10:18:07;;;;;;;0.43;0.10;;;24.80;99.90;;;;;;5096555;28;20079;-68
2023/08/11 10:20:33;;;;;;;1.02;1.02;;;24.80;99.90;;;;;;5130827;27;20406;-69
2023/08/11 10:23:01;;;;;;;0.35;0.35;;;24.80;99.90;;;;;;5129916;27;20050;-69
2023/08/11 10:25:28;;;;;;;0.13;0.13;;;24.90;99.90;;;;;;5100892;27;20058;-68
2023/08/11 10:27:56;;;;;;;0.60;0.30;;;24.90;99.90;;;;;;5099927;27;20050;-69
2023/08/11 10:30:22;;;;;;;1.55;0.63;;;25.00;99.90;;;;;;5113298;27;20043;-68
2023/08/11 10:32:51;;;;;;;0.47;0.40;;;25.10;99.90;;;;;;5104095;28;20607;-69
2023/08/11 10:35:19;;;;;;;0.32;0.32;;;25.10;99.90;;;;;;5125189;27;20273;-68
2023/08/11 10:37:55;;;;;;;4.32;0.47;;;25.10;99.90;;;;;;5137314;27;20622;-68
2023/08/11 10:40:21;;;;;;;0.38;0.38;;;25.20;99.90;;;;;;5106425;28;20051;-68
2023/08/11 10:42:46;;;;;;;1.02;0.50;;;25.20;99.90;;;;;;5132141;27;20168;-68
2023/08/11 10:45:13;;;;;;;0.28;0.28;;;25.30;99.90;;;;;;5108083;28;20505;-69
2023/08/11 10:48:05;;;;;;;0.43;0.43;;;25.30;99.90;;;;;;5127484;28;20043;-68
2023/08/11 10:50:31;;;;;;;0.20;0.20;;;25.40;99.90;;;;;;5119635;27;20047;-69
2023/08/11 10:53:18;;;;;;;0.82;0.70;;;25.40;99.90;;;;;;5126148;27;20040;-68
2023/08/11 10:56:00;;;;;;;0.10;0.10;;;25.40;99.90;;;;;;5091137;28;20040;-69
2023/08/11 10:58:26;;;;;;;0.10;0.10;;;25.50;99.90;;;;;;5112572;27;20095;-68
2023/08/11 11:00:53;;;;;;;0.20;0.20;;;25.40;99.90;;;;;;5118767;28;20122;-69
2023/08/11 11:03:18;;;;;;;0.50;0.30;;;25.40;99.90;;;;;;5103633;28;20049;-69
2023/08/11 11:05:44;;;;;;;0.70;0.30;;;25.50;99.90;;;;;;5109075;28;20039;-69
2023/08/11 11:08:10;;;;;;;0.20;0.20;;;25.50;99.90;;;;;;5105773;28;20043;-69
2023/08/11 11:10:36;;;;;;;0.30;0.30;;;25.60;99.90;;;;;;5114864;28;20492;-69
2023/08/11 11:13:01;;;;;;;1.17;0.90;;;25.60;99.90;;;;;;5125091;28;20125;-69
2023/08/11 11:15:29;;;;;;;0.35;0.35;;;25.60;99.90;;;;;;5099863;28;20035;-69
2023/08/11 11:17:55;;;;;;;0.25;0.25;;;25.50;99.90;;;;;;5106730;28;20042;-68
2023/08/11 11:20:22;;;;;;;0.47;0.47;;;25.50;99.90;;;;;;5094533;28;20394;-68
2023/08/11 11:22:48;;;;;;;0.20;0.20;;;25.50;99.90;;;;;;5102235;27;20172;-68
2023/08/11 11:25:16;;;;;;;0.47;0.20;;;25.60;99.90;;;;;;5104955;27;20035;-68
2023/08/11 11:27:42;;;;;;;0.73;0.63;;;25.60;99.90;;;;;;5098552;27;20039;-68
2023/08/11 11:30:09;;;;;;;0.30;0.30;;;25.70;99.90;;;;;;5125001;27;20050;-68
2023/08/11 11:32:36;;;;;;;0.75;0.68;;;25.70;99.90;;;;;;5104196;27;20046;-69
2023/08/11 11:35:04;;;;;;;0.55;0.52;;;25.80;99.90;;;;;;5108258;27;20035;-69
2023/08/11 11:37:31;;;;;;;0.22;0.22;;;25.80;99.90;;;;;;5102434;27;20050;-69
2023/08/11 11:39:58;;;;;;;4.13;0.65;;;25.90;99.90;;;;;;5104864;27;20119;-69
2023/08/11 11:42:30;;;;;;;0.40;0.40;;;25.80;99.90;;;;;;5103476;27;20069;-69
2023/08/11 11:44:58;;;;;;;1.08;0.82;;;25.80;99.90;;;;;;5115838;27;20396;-68
2023/08/11 11:47:24;;;;;;;0.30;0.30;;;25.90;99.90;;;;;;5100732;27;20101;-69
2023/08/11 11:49:54;;;;;;;1.23;0.80;;;25.90;99.90;;;;;;5136303;27;20039;-68
2023/08/11 11:52:20;;;;;;;0.55;0.40;;;26.00;99.90;;;;;;5103346;27;20048;-68
2023/08/11 11:54:53;;;;;;;0.40;0.40;;;26.00;99.90;;;;;;5113196;27;20039;-69
2023/08/11 11:57:21;;;;;;;0.32;0.28;;;26.10;99.90;;;;;;5107845;27;20095;-68
2023/08/11 11:59:47;;;;;;;0.30;0.30;;;26.20;99.90;;;;;;5104188;27;20550;-69
2023/08/11 12:02:14;;;;;;;0.63;0.57;;;26.20;99.90;;;;;;5103416;27;20043;-68
2023/08/11 12:04:43;;;;;;;0.85;0.65;;;26.20;99.90;;;;;;5096240;28;20047;-67
2023/08/11 12:07:09;;;;;;;0.40;0.28;;;26.20;99.90;;;;;;5097627;27;20417;-68
2023/08/11 12:09:51;;;;;;;0.47;0.32;;;26.30;99.90;;;;;;5113251;27;20370;-69
2023/08/11 12:12:17;;;;;;;2.58;0.60;;;26.30;99.90;;;;;;5136442;27;20031;-68
2023/08/11 12:14:42;;;;;;;0.55;0.17;;;26.30;99.90;;;;;;5113189;27;20054;-68
2023/08/11 12:17:08;;;;;;;0.52;0.52;;;26.40;99.90;;;;;;5086093;28;20413;-69
2023/08/11 12:19:34;;;;;;;0.32;0.30;;;26.40;99.90;;;;;;5135304;27;20035;-69
2023/08/11 12:22:00;;;;;;;1.13;0.52;;;26.40;99.90;;;;;;5101672;27;20504;-69
2023/08/11 12:24:26;;;;;;;0.65;0.65;;;26.60;99.90;;;;;;5110958;27;20035;-69
2023/08/11 12:26:51;;;;;;;0.40;0.40;;;26.60;99.90;;;;;;5119083;27;20065;-69
2023/08/11 12:29:17;;;;;;;0.20;0.20;;;26.70;99.90;;;;;;5093893;28;20031;-69
2023/08/11 12:31:43;;;;;;;1.60;0.57;;;26.70;99.90;;;;;;5098391;28;20471;-69
2023/08/11 12:34:08;;;;;;;0.30;0.30;;;26.70;99.90;;;;;;5096865;27;20040;-71
2023/08/11 12:36:34;;;;;;;0.15;0.15;;;26.80;99.90;;;;;;5109083;28;20181;-68
2023/08/11 12:38:59;;;;;;;0.40;0.40;;;26.80;99.90;;;;;;5112454;27;20405;-68
2023/08/11 12:41:25;;;;;;;2.55;0.70;;;26.80;99.90;;;;;;5106204;27;20036;-69
2023/08/11 12:43:51;;;;;;;0.28;0.28;;;26.90;99.90;;;;;;5122944;27;20050;-69
2023/08/11 12:46:16;;;;;;;0.20;0.20;;;26.90;99.90;;;;;;5111791;27;20054;-68